createdAt,value
2023-03-23T15:57:53.860Z,22.33
2023-03-23T16:00:26.094Z,22.40
2023-03-23T16:02:57.975Z,22.39
2023-03-23T16:05:27.435Z,22.38
2023-03-23T16:07:54.945Z,22.40
2023-03-23T16:10:25.627Z,22.28
2023-03-23T16:12:53.085Z,22.32
2023-03-23T16:15:21.073Z,22.37
2023-03-23T16:17:49.695Z,22.38
2023-03-23T16:20:19.849Z,22.41
2023-03-23T16:22:50.225Z,22.38
2023-03-23T16:25:20.187Z,22.38
2023-03-23T16:27:49.330Z,22.33
2023-03-23T16:30:21.867Z,22.20
2023-03-23T16:32:49.565Z,22.26
2023-03-23T16:35:19.784Z,22.54
2023-03-23T16:37:52.142Z,22.62
2023-03-23T16:40:35.935Z,22.50
2023-03-23T16:43:08.512Z,22.43
2023-03-23T16:45:37.290Z,22.43
2023-03-23T16:48:05.360Z,22.40
2023-03-23T16:50:33.661Z,22.42
2023-03-23T16:53:02.650Z,22.34
2023-03-23T16:55:31.279Z,22.29
2023-03-23T16:58:13.136Z,22.27
2023-03-23T17:00:45.887Z,22.24
2023-03-23T17:03:13.321Z,22.22
2023-03-23T17:05:40.725Z,22.16
2023-03-23T17:08:09.693Z,22.15
2023-03-23T17:10:40.226Z,22.18
2023-03-23T17:13:09.589Z,22.20
2023-03-23T17:15:37.988Z,22.13
2023-03-23T17:18:06.540Z,22.17
2023-03-23T17:20:35.406Z,22.18
2023-03-23T17:23:10.200Z,22.21
2023-03-23T17:25:38.164Z,22.23
2023-03-23T17:28:07.618Z,22.18
2023-03-23T17:30:35.989Z,22.17
2023-03-23T17:33:03.234Z,22.15
2023-03-23T17:35:31.169Z,22.13
2023-03-23T17:37:58.782Z,22.07
2023-03-23T17:40:29.725Z,22.05
2023-03-23T17:42:57.086Z,22.02
2023-03-23T17:45:26.182Z,21.96
2023-03-23T17:47:53.514Z,21.93
2023-03-23T17:50:21.274Z,21.91
2023-03-23T17:52:48.428Z,21.95
2023-03-23T17:55:18.721Z,22.34
2023-03-23T17:57:47.530Z,22.31
2023-03-23T18:00:17.068Z,22.07
2023-03-23T18:02:45.861Z,22.02
2023-03-23T18:05:13.289Z,21.92
2023-03-23T18:07:40.460Z,21.85
2023-03-23T18:10:08.656Z,21.81
2023-03-23T18:12:35.834Z,21.76
2023-03-23T18:15:06.873Z,21.74
2023-03-23T18:17:34.120Z,21.63
2023-03-23T18:20:03.418Z,21.61
2023-03-23T18:22:33.615Z,21.57
2023-03-23T18:25:00.799Z,21.52
2023-03-23T18:27:27.948Z,21.54
2023-03-23T18:29:55.440Z,21.49
2023-03-23T18:32:24.655Z,21.48
2023-03-23T18:34:52.202Z,21.51
2023-03-23T18:37:20.330Z,21.52
2023-03-23T18:39:48.883Z,21.45
2023-03-23T18:42:16.331Z,21.43
2023-03-23T18:44:45.095Z,21.38
2023-03-23T18:47:12.789Z,21.37
2023-03-23T18:49:41.688Z,21.35
2023-03-23T18:52:10.299Z,21.34
2023-03-23T18:54:38.285Z,21.32
2023-03-23T18:57:07.130Z,21.30
2023-03-23T18:59:34.906Z,21.40
2023-03-23T19:02:02.320Z,21.45
2023-03-23T19:04:30.062Z,21.47
2023-03-23T19:06:59.076Z,21.49
2023-03-23T19:09:26.176Z,21.47
2023-03-23T19:11:53.561Z,21.40
2023-03-23T19:14:46.798Z,21.38
2023-03-23T19:17:14.745Z,21.33
2023-03-23T19:19:43.181Z,21.30
2023-03-23T19:22:12.549Z,21.32
2023-03-23T19:24:39.715Z,21.26
2023-03-23T19:27:08.302Z,21.20
2023-03-23T19:29:36.004Z,21.21
2023-03-23T19:32:03.347Z,21.29
2023-03-23T19:34:30.963Z,21.32
2023-03-23T19:37:05.278Z,21.34
2023-03-23T19:39:36.330Z,21.29
2023-03-23T19:42:04.633Z,21.31
2023-03-23T19:44:32.101Z,21.30
2023-03-23T19:47:00.394Z,21.31
2023-03-23T19:49:27.952Z,21.31
2023-03-23T19:52:09.079Z,21.24
2023-03-23T19:54:39.946Z,21.26
2023-03-23T19:57:09.370Z,21.65
2023-03-23T19:59:38.297Z,22.62
2023-03-23T20:02:06.905Z,23.10
2023-03-23T20:04:35.438Z,23.42
2023-03-23T20:07:04.397Z,23.59
2023-03-23T20:09:33.294Z,23.75
2023-03-23T20:12:01.939Z,23.93
2023-03-23T20:14:29.388Z,24.06
2023-03-23T20:16:56.845Z,24.09
2023-03-23T20:19:24.189Z,23.39
2023-03-23T20:21:52.342Z,22.92
2023-03-23T20:24:20.215Z,22.71
2023-03-23T20:26:47.794Z,22.30
2023-03-23T20:29:17.103Z,22.04
2023-03-23T20:31:44.924Z,21.77
2023-03-23T20:34:15.480Z,21.61
2023-03-23T20:36:47.684Z,21.48
2023-03-23T20:39:18.085Z,21.42
2023-03-23T20:41:46.040Z,21.39
2023-03-23T20:44:14.386Z,21.30
2023-03-23T20:46:43.906Z,21.24
2023-03-23T20:49:12.303Z,21.17
2023-03-23T20:51:39.663Z,21.18
2023-03-23T20:54:06.903Z,21.18
2023-03-23T20:56:34.127Z,21.04
2023-03-23T20:59:02.426Z,21.05
2023-03-23T21:01:30.424Z,21.06
2023-03-23T21:04:00.245Z,21.08
2023-03-23T21:06:27.822Z,20.99
2023-03-23T21:08:56.305Z,21.06
2023-03-23T21:11:33.451Z,21.15
2023-03-23T21:14:03.755Z,21.19
2023-03-23T21:16:31.159Z,21.25
2023-03-23T21:19:05.864Z,21.30
2023-03-23T21:21:35.342Z,21.27
2023-03-23T21:24:03.570Z,21.30
2023-03-23T21:26:30.962Z,21.28
2023-03-23T21:29:00.489Z,21.14
2023-03-23T21:31:30.773Z,21.12
2023-03-23T21:33:58.961Z,21.19
2023-03-23T21:36:29.716Z,21.13
2023-03-23T21:38:58.695Z,21.17
2023-03-23T21:41:26.772Z,21.22
2023-03-23T21:43:53.957Z,20.88
2023-03-23T21:46:23.258Z,20.71
2023-03-23T21:48:51.937Z,20.62
2023-03-23T21:51:23.198Z,20.62
2023-03-23T21:53:53.628Z,20.77
2023-03-23T21:56:23.002Z,20.77
2023-03-23T21:58:50.607Z,20.74
2023-03-23T22:01:18.344Z,20.65
2023-03-23T22:03:54.057Z,20.63
2023-03-23T22:06:24.705Z,20.66
2023-03-23T22:08:55.286Z,20.73
2023-03-23T22:11:26.757Z,20.81
2023-03-23T22:13:56.721Z,20.82
2023-03-23T22:16:24.984Z,20.75
2023-03-23T22:18:53.510Z,20.77
2023-03-23T22:21:21.745Z,20.70
2023-03-23T22:23:49.914Z,20.71
2023-03-23T22:26:19.593Z,20.77
2023-03-23T22:28:48.051Z,20.90
2023-03-23T22:31:17.713Z,21.01
2023-03-23T22:33:45.926Z,20.91
2023-03-23T22:36:14.459Z,20.94
2023-03-23T22:38:44.485Z,20.94
2023-03-23T22:41:17.719Z,20.94
2023-03-23T22:43:47.681Z,20.92
2023-03-23T22:46:15.791Z,20.84
2023-03-23T22:48:43.652Z,20.77
2023-03-23T22:51:12.687Z,20.77
2023-03-23T22:53:39.968Z,20.74
2023-03-23T22:56:08.727Z,20.53
2023-03-23T22:58:36.394Z,20.60
2023-03-23T23:01:08.838Z,20.61
2023-03-23T23:03:36.123Z,20.60
2023-03-23T23:06:03.500Z,20.58
2023-03-23T23:08:31.746Z,20.62
2023-03-23T23:11:02.290Z,20.60
2023-03-23T23:13:31.866Z,20.58
2023-03-23T23:16:02.212Z,20.65
2023-03-23T23:18:31.495Z,20.67
2023-03-23T23:21:01.251Z,20.71
2023-03-23T23:23:28.794Z,20.77
2023-03-23T23:25:56.503Z,20.79
2023-03-23T23:28:24.459Z,20.84
2023-03-23T23:30:51.725Z,20.84
2023-03-23T23:33:19.979Z,20.80
2023-03-23T23:35:50.015Z,20.79
2023-03-23T23:38:17.515Z,20.72
2023-03-23T23:40:46.466Z,20.68
2023-03-23T23:43:15.777Z,20.49
2023-03-23T23:45:44.182Z,20.54
2023-03-23T23:48:11.947Z,20.49
2023-03-23T23:50:39.150Z,20.48
2023-03-23T23:53:08.265Z,20.40
2023-03-23T23:55:35.477Z,20.36
2023-03-23T23:58:02.654Z,20.34
